Time;durP1;ratioP1;P1;durP2;ratioP2;P2;SDS_P1;SDS_P2;PMS_P1;PMS_P2;Temp;Humidity;BMP_temperature;BMP_pressure;BME280_temperature;BME280_humidity;BME280_pressure;Samples;Min_cycle;Max_cycle;Signal;HPM_P1;HPM_P2
2022/05/05 00:01:53;;;;;;;1.57;1.05;;;;;;;8.13;38.41;99803.71;1677511;85;21028;-63
2022/05/05 00:04:22;;;;;;;3.20;1.27;;;;;;;8.11;38.45;99809.63;1657718;85;21007;-63
2022/05/05 00:06:49;;;;;;;3.98;1.30;;;;;;;8.10;38.45;99814.59;1667507;85;21261;-63
2022/05/05 00:09:15;;;;;;;1.32;0.95;;;;;;;8.07;38.49;99813.56;1678668;85;21004;-63
2022/05/05 00:14:33;;;;;;;1.85;1.02;;;;;;;8.03;38.64;99816.98;1657831;85;21023;-64
2022/05/05 00:17:07;;;;;;;2.20;1.32;;;;;;;7.99;38.68;99820.08;1671622;85;21016;-64
2022/05/05 00:19:36;;;;;;;2.05;1.00;;;;;;;7.98;38.83;99827.67;1672748;85;21095;-64
2022/05/05 00:22:04;;;;;;;2.55;1.00;;;;;;;7.94;38.87;99827.63;1657331;85;20897;-64
2022/05/05 00:24:30;;;;;;;3.30;1.15;;;;;;;7.92;38.94;99830.44;1680727;85;21439;-64
2022/05/05 00:26:57;;;;;;;1.17;1.02;;;;;;;7.88;38.93;99834.34;1661831;85;20968;-63
2022/05/05 00:29:23;;;;;;;1.47;1.15;;;;;;;7.87;39.02;99839.27;1647529;85;20969;-62
2022/05/05 00:31:50;;;;;;;1.12;0.98;;;;;;;7.86;39.04;99836.78;1683312;85;21267;-65
2022/05/05 00:34:17;;;;;;;1.57;1.32;;;;;;;7.83;39.02;99835.74;1662982;85;21564;-65
2022/05/05 00:36:44;;;;;;;2.98;1.00;;;;;;;7.81;39.13;99839.03;1667629;85;21017;-63
2022/05/05 00:39:11;;;;;;;2.20;1.30;;;;;;;7.76;39.28;99839.47;1676393;83;20966;-64
2022/05/05 00:41:42;;;;;;;2.05;1.12;;;;;;;7.72;39.41;99851.31;1681050;85;21088;-64
2022/05/05 00:44:09;;;;;;;9.23;1.30;;;;;;;7.68;39.61;99841.16;1675936;85;21134;-64
2022/05/05 00:46:36;;;;;;;1.80;1.20;;;;;;;7.64;39.60;99850.38;1683824;84;21059;-64
2022/05/05 00:49:03;;;;;;;3.52;1.20;;;;;;;7.61;39.65;99849.34;1673096;84;20954;-63
2022/05/05 00:51:30;;;;;;;7.35;1.62;;;;;;;7.59;39.70;99842.00;1665320;85;21000;-64
2022/05/05 00:53:57;;;;;;;1.55;0.95;;;;;;;7.57;39.74;99849.25;1657428;85;20955;-64
2022/05/05 00:56:24;;;;;;;4.42;1.20;;;;;;;7.54;39.79;99850.38;1657144;85;21284;-65
2022/05/05 00:58:53;;;;;;;1.70;1.05;;;;;;;7.53;39.89;99857.15;1675281;85;20990;-65
2022/05/05 01:01:21;;;;;;;1.62;1.40;;;;;;;7.50;40.19;99855.63;1684034;85;21001;-68
2022/05/05 01:03:49;;;;;;;3.65;1.15;;;;;;;7.43;40.34;99851.36;1675498;85;20996;-65
2022/05/05 01:06:16;;;;;;;2.00;1.10;;;;;;;7.39;40.55;99851.31;1675502;85;20995;-66
2022/05/05 01:08:43;;;;;;;1.92;0.75;;;;;;;7.34;40.51;99853.55;1675378;85;21836;-64
2022/05/05 01:11:10;;;;;;;1.25;0.93;;;;;;;7.31;40.52;99859.13;1675215;85;21063;-66
2022/05/05 01:13:40;;;;;;;2.22;0.95;;;;;;;7.28;40.61;99859.39;1666504;85;21003;-65
2022/05/05 01:16:09;;;;;;;1.40;0.95;;;;;;;7.24;40.71;99855.38;1675351;85;21529;-66
2022/05/05 01:18:36;;;;;;;2.17;1.20;;;;;;;7.24;40.79;99861.15;1672003;83;20956;-65
2022/05/05 01:21:03;;;;;;;1.50;1.20;;;;;;;7.19;40.91;99864.22;1653241;86;21169;-65
2022/05/05 01:23:29;;;;;;;1.35;0.95;;;;;;;7.16;41.12;99867.62;1661639;86;21067;-64
2022/05/05 01:28:44;;;;;;;1.27;1.00;;;;;;;7.08;41.52;99874.94;1662158;86;20984;-64
2022/05/05 01:31:11;;;;;;;1.15;0.85;;;;;;;7.03;41.73;99871.87;1663606;84;20932;-64
2022/05/05 01:33:38;;;;;;;1.82;1.35;;;;;;;6.99;41.90;99878.39;1674017;84;21271;-65
2022/05/05 01:36:06;;;;;;;1.12;1.02;;;;;;;6.93;42.12;99870.19;1669957;86;20936;-67
2022/05/05 01:38:36;;;;;;;2.05;0.90;;;;;;;6.88;42.30;99875.05;1670220;85;20944;-67
2022/05/05 01:41:08;;;;;;;1.85;1.15;;;;;;;6.82;42.56;99874.63;1667192;86;20901;-67
2022/05/05 01:43:35;;;;;;;2.27;1.15;;;;;;;6.75;42.95;99879.28;1661292;86;21004;-65
2022/05/05 01:46:02;;;;;;;1.27;1.05;;;;;;;6.68;43.16;99882.10;1670706;86;21219;-65
2022/05/05 01:48:29;;;;;;;1.65;0.90;;;;;;;6.62;43.24;99882.66;1670186;86;21066;-65
2022/05/05 01:50:55;;;;;;;3.70;1.10;;;;;;;6.57;43.50;99882.23;1670249;86;21541;-65
2022/05/05 01:53:22;;;;;;;3.30;1.10;;;;;;;6.52;43.72;99880.45;1665125;86;20961;-63
2022/05/05 01:55:49;;;;;;;1.77;1.30;;;;;;;6.48;44.10;99889.64;1670422;86;20952;-66
2022/05/05 01:58:15;;;;;;;2.27;1.17;;;;;;;6.42;44.16;99886.20;1670368;85;21183;-66
2022/05/05 02:00:41;;;;;;;2.92;1.10;;;;;;;6.36;44.45;99886.76;1670230;85;20936;-64
2022/05/05 02:03:14;;;;;;;1.95;0.95;;;;;;;6.31;44.67;99887.64;1662283;85;21577;-65
2022/05/05 02:05:43;;;;;;;2.00;1.12;;;;;;;6.25;44.77;99882.41;1649491;86;20916;-66
2022/05/05 02:08:11;;;;;;;2.35;1.35;;;;;;;6.22;44.91;99882.66;1644567;86;21031;-64
2022/05/05 02:10:37;;;;;;;1.72;1.15;;;;;;;6.18;45.02;99879.44;1660827;86;21260;-65
2022/05/05 02:13:05;;;;;;;1.67;1.00;;;;;;;6.16;45.23;99889.31;1667244;85;20944;-65
2022/05/05 02:15:34;;;;;;;1.45;1.17;;;;;;;6.16;45.26;99888.47;1644208;86;21036;-66
2022/05/05 02:18:08;;;;;;;2.62;1.10;;;;;;;6.13;45.48;99886.93;1648369;84;21446;-67
2022/05/05 02:20:35;;;;;;;2.00;1.30;;;;;;;6.11;45.58;99879.63;1653417;85;21060;-64
2022/05/05 02:23:02;;;;;;;2.42;1.30;;;;;;;6.09;45.66;99889.50;1663213;85;21157;-64
2022/05/05 02:25:28;;;;;;;2.60;1.17;;;;;;;6.09;45.75;99893.45;1657115;85;21566;-62
2022/05/05 02:27:55;;;;;;;3.47;1.35;;;;;;;6.09;45.84;99894.78;1667219;85;21011;-65
2022/05/05 02:30:23;;;;;;;3.33;1.60;;;;;;;6.10;45.88;99891.15;1678640;85;21083;-67
2022/05/05 02:32:50;;;;;;;2.25;1.30;;;;;;;6.11;45.94;99897.27;1678736;85;21000;-64
2022/05/05 02:35:16;;;;;;;1.65;1.12;;;;;;;6.11;46.04;99896.80;1678722;85;21263;-67
2022/05/05 02:40:28;;;;;;;2.10;1.02;;;;;;;6.14;46.08;99901.83;1678915;85;21004;-65
2022/05/05 02:42:55;;;;;;;4.55;1.22;;;;;;;6.16;46.04;99907.80;1672742;85;21470;-67
2022/05/05 02:45:23;;;;;;;1.82;1.20;;;;;;;6.15;46.12;99910.08;1652966;85;20996;-65
2022/05/05 02:47:50;;;;;;;1.05;0.98;;;;;;;6.17;46.16;99904.20;1652602;85;21884;-67
2022/05/05 02:50:18;;;;;;;4.33;1.60;;;;;;;6.18;46.15;99909.82;1652412;85;21019;-63
2022/05/05 02:52:46;;;;;;;2.95;1.45;;;;;;;6.18;46.26;99911.14;1660416;85;21637;-66
2022/05/05 02:55:12;;;;;;;5.17;1.47;;;;;;;6.21;46.27;99910.88;1645744;86;20952;-66
2022/05/05 02:57:39;;;;;;;1.62;1.05;;;;;;;6.25;46.25;99908.83;1641464;87;20972;-67
2022/05/05 03:00:10;;;;;;;2.95;1.30;;;;;;;6.31;46.29;99905.62;1678629;85;21172;-63
2022/05/05 03:02:37;;;;;;;2.12;1.52;;;;;;;6.38;46.23;99908.59;1678953;85;20921;-68
2022/05/05 03:05:05;;;;;;;3.17;1.35;;;;;;;6.49;46.11;99909.83;1663841;85;20952;-68
2022/05/05 03:07:31;;;;;;;3.42;1.20;;;;;;;6.57;45.97;99906.84;1652376;85;20996;-65
2022/05/05 03:09:58;;;;;;;2.45;1.35;;;;;;;6.70;45.77;99913.23;1652440;85;21470;-67
2022/05/05 03:12:24;;;;;;;2.20;1.35;;;;;;;6.83;45.51;99908.50;1655970;85;21169;-63
2022/05/05 03:14:51;;;;;;;2.20;1.40;;;;;;;6.95;45.28;99911.40;1656159;85;20917;-62
2022/05/05 03:17:18;;;;;;;2.20;1.42;;;;;;;7.13;44.95;99912.88;1651821;85;21005;-64
2022/05/05 03:19:44;;;;;;;3.50;1.60;;;;;;;7.32;44.55;99912.89;1644199;86;21511;-66
2022/05/05 03:22:11;;;;;;;1.90;1.00;;;;;;;7.52;44.17;99915.88;1644964;86;21082;-65
2022/05/05 03:24:38;;;;;;;2.37;1.40;;;;;;;7.74;43.68;99920.89;1648289;86;21263;-64
2022/05/05 03:27:05;;;;;;;1.85;1.40;;;;;;;7.97;43.21;99920.91;1644042;86;21038;-64
2022/05/05 03:29:32;;;;;;;1.80;1.42;;;;;;;8.21;42.74;99927.05;1644162;86;20995;-64
2022/05/05 03:31:59;;;;;;;2.27;1.32;;;;;;;8.47;42.14;99929.41;1644525;86;21026;-65
2022/05/05 03:34:25;;;;;;;3.12;1.37;;;;;;;8.71;41.61;99929.39;1647353;86;21038;-65
2022/05/05 03:36:53;;;;;;;7.60;1.40;;;;;;;8.94;41.21;99930.14;1644196;86;21332;-64
2022/05/05 03:39:19;;;;;;;3.15;1.67;;;;;;;9.20;40.76;99927.62;1644008;86;20956;-65
2022/05/05 03:41:46;;;;;;;4.05;1.50;;;;;;;9.46;40.35;99922.38;1644319;86;21263;-67
2022/05/05 03:44:13;;;;;;;3.20;1.70;;;;;;;9.72;39.78;99922.78;1665983;86;21025;-66
2022/05/05 03:46:40;;;;;;;3.52;1.57;;;;;;;9.98;39.19;99925.95;1670559;86;21087;-66
2022/05/05 03:49:08;;;;;;;5.17;2.17;;;;;;;10.21;38.63;99919.16;1670240;85;21477;-68
2022/05/05 03:51:35;;;;;;;2.00;1.62;;;;;;;10.44;38.14;99928.25;1670108;85;20904;-65
2022/05/05 03:54:01;;;;;;;2.10;1.40;;;;;;;10.65;37.68;99919.38;1675203;84;20930;-68
2022/05/05 03:56:28;;;;;;;2.40;1.65;;;;;;;10.83;37.38;99920.60;1670347;86;20968;-67
2022/05/05 03:58:54;;;;;;;2.80;1.67;;;;;;;11.01;36.91;99914.67;1670421;86;21431;-66
2022/05/05 04:01:20;;;;;;;2.47;1.57;;;;;;;11.20;36.63;99925.04;1670109;85;21134;-67
2022/05/05 04:03:47;;;;;;;1.98;1.20;;;;;;;11.34;36.34;99926.23;1659997;86;21031;-64
2022/05/05 04:06:16;;;;;;;2.58;2.00;;;;;;;11.48;35.93;99919.75;1644068;86;20904;-65
2022/05/05 04:08:42;;;;;;;6.95;1.75;;;;;;;11.65;35.58;99924.59;1644193;86;20967;-65
2022/05/05 04:11:08;;;;;;;3.58;1.60;;;;;;;11.81;35.35;99929.94;1644225;86;21572;-64
2022/05/05 04:13:36;;;;;;;2.40;1.70;;;;;;;12.00;34.71;99930.93;1648932;86;21119;-66
2022/05/05 04:16:04;;;;;;;2.45;1.40;;;;;;;12.12;34.11;99934.91;1644070;86;20956;-67
2022/05/05 04:18:32;;;;;;;3.67;1.57;;;;;;;12.23;34.04;99940.39;1644077;86;21075;-65
2022/05/05 04:20:59;;;;;;;2.92;1.50;;;;;;;12.34;33.49;99940.04;1639999;86;21011;-63
2022/05/05 04:23:26;;;;;;;1.50;1.12;;;;;;;12.44;33.25;99936.67;1661119;86;21070;-65
2022/05/05 04:25:53;;;;;;;3.52;1.30;;;;;;;12.58;32.90;99937.31;1646747;86;21747;-66
2022/05/05 04:28:19;;;;;;;2.42;1.17;;;;;;;12.74;32.75;99947.09;1644013;86;21019;-65
2022/05/05 04:30:46;;;;;;;2.30;1.20;;;;;;;12.89;32.30;99951.54;1651536;86;21111;-65
2022/05/05 04:33:13;;;;;;;6.03;1.32;;;;;;;13.08;32.29;99946.81;1661227;86;21443;-64
2022/05/05 04:35:40;;;;;;;1.60;1.15;;;;;;;13.28;31.80;99950.20;1658293;86;20999;-67
2022/05/05 04:38:07;;;;;;;1.50;1.30;;;;;;;13.48;31.31;99946.05;1652991;86;21263;-64
2022/05/05 04:40:35;;;;;;;1.95;1.10;;;;;;;13.73;30.83;99944.05;1653209;86;20952;-65
2022/05/05 04:43:01;;;;;;;2.10;1.40;;;;;;;13.92;30.23;99948.08;1651866;86;20880;-66
2022/05/05 04:45:28;;;;;;;2.52;1.20;;;;;;;13.98;29.83;99941.48;1644557;86;21624;-68
2022/05/05 04:47:55;;;;;;;2.47;1.37;;;;;;;14.05;29.85;99949.63;1644236;86;20940;-68
2022/05/05 04:50:22;;;;;;;3.02;1.32;;;;;;;14.17;29.40;99946.33;1644092;86;21764;-68
2022/05/05 04:52:49;;;;;;;3.67;1.40;;;;;;;14.22;28.82;99941.76;1648857;86;21000;-65
2022/05/05 04:55:15;;;;;;;2.98;1.42;;;;;;;14.37;28.77;99943.13;1645134;86;20904;-63
2022/05/05 04:57:42;;;;;;;2.00;1.15;;;;;;;14.57;28.94;99931.70;1644101;86;20924;-65
2022/05/05 05:00:10;;;;;;;1.52;1.02;;;;;;;14.84;28.25;99938.24;1651357;84;20980;-63
2022/05/05 05:02:38;;;;;;;1.80;1.20;;;;;;;14.98;28.03;99934.73;1669273;86;21342;-65
2022/05/05 05:05:06;;;;;;;1.70;0.95;;;;;;;14.99;27.56;99935.56;1645855;85;20976;-65
2022/05/05 05:07:33;;;;;;;2.55;1.25;;;;;;;15.00;27.30;99935.86;1645273;86;21439;-67
2022/05/05 05:10:01;;;;;;;5.10;1.17;;;;;;;15.12;27.65;99937.06;1658210;84;21083;-64
2022/05/05 05:12:27;;;;;;;4.92;0.93;;;;;;;15.28;26.98;99934.13;1652716;86;20928;-65
2022/05/05 05:14:53;;;;;;;1.07;0.80;;;;;;;15.38;26.85;99931.46;1649990;84;22111;-68
2022/05/05 05:17:20;;;;;;;3.12;1.50;;;;;;;15.53;26.58;99958.27;1671748;84;21020;-63
2022/05/05 05:19:48;;;;;;;6.85;1.22;;;;;;;15.64;26.04;99946.22;1646363;84;21007;-66
2022/05/05 05:22:14;;;;;;;3.08;1.10;;;;;;;15.73;25.14;99960.64;1644262;86;21446;-66
2022/05/05 05:24:41;;;;;;;2.80;0.85;;;;;;;15.75;25.66;99950.54;1648813;86;20961;-68
2022/05/05 05:27:08;;;;;;;3.58;1.00;;;;;;;15.90;25.50;99950.48;1667672;86;21162;-69
2022/05/05 05:29:35;;;;;;;1.77;0.90;;;;;;;16.00;25.30;99958.53;1664986;86;21008;-67
2022/05/05 05:32:03;;;;;;;1.80;0.80;;;;;;;16.04;25.21;99953.58;1644112;86;20920;-66
2022/05/05 05:34:30;;;;;;;3.12;1.20;;;;;;;16.15;25.11;99951.72;1672627;84;20997;-66
2022/05/05 05:36:57;;;;;;;6.90;1.30;;;;;;;16.29;24.84;99954.00;1646851;86;21108;-64
2022/05/05 05:39:23;;;;;;;3.05;1.30;;;;;;;16.50;25.01;99951.26;1643726;86;21220;-64
2022/05/05 05:41:50;;;;;;;2.87;1.05;;;;;;;16.73;24.60;99950.50;1662329;84;21130;-63
2022/05/05 05:44:16;;;;;;;3.20;0.80;;;;;;;16.95;24.20;99950.69;1656366;85;21658;-65
2022/05/05 05:46:43;;;;;;;2.10;1.00;;;;;;;17.08;24.10;99954.78;1649818;86;21011;-64
2022/05/05 05:49:09;;;;;;;1.07;0.82;;;;;;;17.15;23.70;99954.83;1647887;86;21146;-64
2022/05/05 05:51:37;;;;;;;1.82;1.07;;;;;;;17.21;23.77;99954.84;1643625;86;21848;-68
2022/05/05 05:54:04;;;;;;;1.85;0.90;;;;;;;17.34;23.94;99953.24;1643690;86;21038;-66
2022/05/05 05:56:32;;;;;;;2.25;0.80;;;;;;;17.64;23.40;99951.89;1656311;86;21624;-68
2022/05/05 05:59:01;;;;;;;1.50;0.93;;;;;;;17.78;22.64;99953.58;1665784;86;21158;-64
2022/05/05 06:04:13;;;;;;;5.50;1.22;;;;;;;17.85;22.65;99952.55;1668766;86;21123;-66
2022/05/05 06:06:41;;;;;;;3.10;1.12;;;;;;;18.24;22.34;99960.31;1663648;84;20960;-65
2022/05/05 06:09:07;;;;;;;3.77;1.10;;;;;;;18.54;21.82;99954.01;1684110;84;20956;-67
2022/05/05 06:11:35;;;;;;;1.42;0.93;;;;;;;18.81;21.37;99963.67;1647229;83;20932;-66
2022/05/05 06:14:04;;;;;;;2.70;1.07;;;;;;;18.90;21.05;99957.02;1644387;86;21274;-65
2022/05/05 06:16:30;;;;;;;2.55;0.85;;;;;;;18.92;21.31;99949.55;1649269;86;21092;-68
2022/05/05 06:18:57;;;;;;;2.87;0.90;;;;;;;19.22;20.75;99954.70;1648306;85;21521;-66
2022/05/05 06:21:24;;;;;;;6.03;1.35;;;;;;;19.40;20.71;99948.62;1646000;86;20928;-66
2022/05/05 06:23:50;;;;;;;1.52;0.75;;;;;;;19.60;20.96;99951.53;1644324;86;21036;-65
2022/05/05 06:26:16;;;;;;;2.42;1.12;;;;;;;19.91;20.68;99945.81;1647398;86;21102;-64
2022/05/05 06:28:43;;;;;;;3.25;0.90;;;;;;;20.11;20.06;99954.58;1663466;86;21764;-66
2022/05/05 06:31:11;;;;;;;1.50;0.70;;;;;;;20.27;20.01;99956.77;1669400;86;20900;-67
2022/05/05 06:33:38;;;;;;;4.05;1.05;;;;;;;20.57;19.68;99946.89;1670296;85;21011;-66
2022/05/05 06:36:05;;;;;;;2.25;0.90;;;;;;;20.84;19.02;99948.28;1670402;86;20908;-66
2022/05/05 06:38:32;;;;;;;2.12;0.70;;;;;;;21.02;19.12;99946.09;1670273;85;21027;-65
2022/05/05 06:40:59;;;;;;;1.30;0.72;;;;;;;21.10;19.17;99947.69;1670498;85;21803;-68
2022/05/05 06:43:25;;;;;;;1.37;0.90;;;;;;;21.25;18.73;99949.47;1656416;86;20943;-67
2022/05/05 06:45:52;;;;;;;2.55;1.75;;;;;;;21.41;18.43;99947.48;1644143;86;21075;-66
2022/05/05 06:48:18;;;;;;;1.15;0.70;;;;;;;21.60;18.44;99954.52;1644104;86;20980;-66
2022/05/05 06:50:45;;;;;;;5.40;0.80;;;;;;;21.63;18.09;99951.36;1644214;86;21482;-68
2022/05/05 06:53:12;;;;;;;4.12;0.95;;;;;;;21.69;18.10;99961.23;1644071;86;21272;-66
2022/05/05 06:55:39;;;;;;;3.70;1.07;;;;;;;21.82;17.92;99955.63;1644177;86;20971;-68
2022/05/05 06:58:06;;;;;;;1.85;0.88;;;;;;;22.02;17.61;99954.02;1644129;86;21610;-67
2022/05/05 07:03:17;;;;;;;1.72;0.90;;;;;;;22.19;17.59;99960.39;1644268;86;21070;-65
2022/05/05 07:05:44;;;;;;;1.70;0.80;;;;;;;22.39;17.39;99957.36;1644148;86;21226;-66
2022/05/05 07:08:11;;;;;;;1.60;0.65;;;;;;;22.75;17.08;99957.14;1644099;86;21011;-66
2022/05/05 07:10:53;;;;;;;2.52;0.88;;;;;;;22.99;16.93;99952.50;1644446;86;20976;-68
2022/05/05 07:13:25;;;;;;;4.90;0.90;;;;;;;22.95;16.67;99952.67;1661777;86;21016;-67
2022/05/05 07:15:52;;;;;;;2.25;0.65;;;;;;;22.97;16.68;99950.01;1662527;86;20948;-67
2022/05/05 07:18:18;;;;;;;3.12;0.85;;;;;;;23.00;16.68;99952.77;1670278;86;21272;-66
2022/05/05 07:20:45;;;;;;;2.08;0.90;;;;;;;23.05;16.74;99944.21;1683083;84;21487;-66
2022/05/05 07:23:12;;;;;;;2.17;0.70;;;;;;;23.30;16.62;99957.48;1686756;84;20956;-67
2022/05/05 07:25:41;;;;;;;1.60;1.17;;;;;;;23.59;16.23;99957.82;1677963;85;20908;-66
2022/05/05 07:28:08;;;;;;;2.47;1.10;;;;;;;23.75;15.90;99950.78;1686379;85;21023;-68
2022/05/05 07:30:35;;;;;;;1.35;0.80;;;;;;;23.88;15.83;99950.47;1677823;85;20941;-68
2022/05/05 07:33:02;;;;;;;3.60;0.65;;;;;;;24.19;16.01;99951.83;1677655;85;21450;-67
2022/05/05 07:35:29;;;;;;;3.02;0.70;;;;;;;24.64;15.35;99947.63;1657649;85;20994;-68
2022/05/05 07:37:56;;;;;;;2.00;0.65;;;;;;;24.89;14.89;99952.08;1668903;85;21066;-66
2022/05/05 07:40:23;;;;;;;0.90;0.65;;;;;;;24.97;14.69;99940.23;1659914;85;21023;-67
2022/05/05 07:42:50;;;;;;;0.85;0.68;;;;;;;24.97;14.69;99940.23;1660075;85;21582;-65
2022/05/05 07:45:18;;;;;;;1.62;0.80;;;;;;;24.99;14.68;99946.77;1659686;85;21003;-69
2022/05/05 07:47:46;;;;;;;0.88;0.70;;;;;;;24.85;15.23;99955.83;1659794;85;21446;-68
2022/05/05 07:50:13;;;;;;;2.08;0.88;;;;;;;25.02;14.98;99947.09;1659832;85;20952;-67
2022/05/05 07:52:41;;;;;;;3.62;0.72;;;;;;;25.42;15.12;99950.81;1659914;85;20995;-65
2022/05/05 07:55:09;;;;;;;11.20;1.12;;;;;;;25.42;15.12;99950.81;1659804;85;21250;-65
2022/05/05 07:57:46;;;;;;;1.70;0.90;;;;;;;25.88;14.49;99952.69;1659723;85;21446;-67
2022/05/05 08:00:14;;;;;;;3.05;0.78;;;;;;;26.04;14.16;99953.11;1678560;85;21438;-65
2022/05/05 08:02:41;;;;;;;3.70;0.80;;;;;;;26.04;14.34;99951.22;1686567;84;21493;-65
2022/05/05 08:05:11;;;;;;;3.05;0.80;;;;;;;26.30;14.35;99952.27;1686452;85;21557;-66
2022/05/05 08:07:44;;;;;;;2.33;1.00;;;;;;;26.52;13.90;99951.59;1686416;85;21110;-66
2022/05/05 08:10:12;;;;;;;2.62;0.90;;;;;;;26.49;13.87;99945.86;1686321;85;20904;-68
2022/05/05 08:12:39;;;;;;;6.92;1.00;;;;;;;26.60;13.52;99944.28;1686333;85;20959;-66
2022/05/05 08:15:08;;;;;;;2.25;0.80;;;;;;;26.64;13.61;99942.69;1686667;85;21007;-66
2022/05/05 08:17:36;;;;;;;1.30;0.75;;;;;;;26.80;13.62;99940.33;1686449;85;20897;-65
2022/05/05 08:20:04;;;;;;;3.70;0.90;;;;;;;27.13;13.57;99936.41;1682140;83;21263;-68
2022/05/05 08:22:32;;;;;;;2.45;1.10;;;;;;;27.63;12.89;99941.23;1670094;86;21024;-69
2022/05/05 08:30:28;;;;;;;3.15;0.80;;;;;;;27.74;12.90;99934.66;1670285;86;20963;-68
2022/05/05 08:32:54;;;;;;;1.77;0.80;;;;;;;28.42;12.76;99929.22;1670366;85;21959;-68
2022/05/05 08:35:22;;;;;;;2.60;0.80;;;;;;;29.07;12.12;99928.24;1670293;85;21550;-67
2022/05/05 08:37:51;;;;;;;1.37;0.80;;;;;;;29.31;11.79;99932.55;1670263;86;20952;-67
2022/05/05 08:40:17;;;;;;;2.37;0.88;;;;;;;29.18;11.72;99926.28;1670214;85;21034;-66
2022/05/05 08:42:44;;;;;;;0.90;0.70;;;;;;;28.93;11.82;99926.39;1670290;86;20908;-67
2022/05/05 08:45:10;;;;;;;2.92;1.00;;;;;;;28.91;11.87;99911.63;1670255;86;21263;-66
2022/05/05 08:47:38;;;;;;;1.80;0.72;;;;;;;29.28;11.33;99919.41;1670195;86;20956;-67
2022/05/05 08:50:08;;;;;;;1.07;0.88;;;;;;;29.38;11.33;99911.95;1670264;86;21031;-68
2022/05/05 08:52:52;;;;;;;4.12;0.80;;;;;;;29.58;11.16;99918.42;1670207;86;21530;-68
2022/05/05 08:55:20;;;;;;;2.95;1.05;;;;;;;29.77;11.13;99923.51;1670341;85;21000;-66
2022/05/05 08:57:47;;;;;;;2.40;0.90;;;;;;;29.76;11.22;99930.08;1670174;85;21217;-68
2022/05/05 09:00:15;;;;;;;7.20;1.17;;;;;;;29.82;10.89;99928.98;1670135;85;21438;-68
2022/05/05 09:02:43;;;;;;;2.85;1.15;;;;;;;30.10;10.84;99919.98;1670140;86;20920;-68
2022/05/05 09:05:09;;;;;;;1.77;0.82;;;;;;;30.51;10.61;99907.53;1670111;86;20964;-68
2022/05/05 09:07:49;;;;;;;4.20;0.90;;;;;;;31.03;10.41;99919.04;1670378;86;20989;-70
2022/05/05 09:10:18;;;;;;;1.45;0.70;;;;;;;31.21;10.33;99913.30;1669670;85;21241;-67
2022/05/05 09:13:01;;;;;;;4.00;1.00;;;;;;;31.18;10.39;99909.80;1670240;85;21031;-68
2022/05/05 09:15:33;;;;;;;2.35;0.80;;;;;;;31.36;10.34;99909.00;1670283;85;20964;-66
2022/05/05 09:18:15;;;;;;;2.30;1.00;;;;;;;31.71;10.18;99904.91;1670544;86;21090;-67
2022/05/05 09:20:42;;;;;;;4.50;1.50;;;;;;;32.06;9.74;99899.44;1670241;83;20920;-67
2022/05/05 09:23:10;;;;;;;1.57;0.80;;;;;;;32.23;9.92;99910.68;1670147;85;21139;-67
2022/05/05 09:25:46;;;;;;;2.50;0.68;;;;;;;32.47;9.63;99910.52;1670165;86;20995;-67
2022/05/05 09:28:21;;;;;;;2.25;1.17;;;;;;;32.23;9.28;99911.50;1670259;86;20868;-65
2022/05/05 09:30:49;;;;;;;2.30;1.02;;;;;;;31.60;9.79;99899.34;1671870;84;20941;-66
2022/05/05 09:33:38;;;;;;;3.47;0.78;;;;;;;31.76;9.97;99908.41;1670308;86;21013;-68
2022/05/05 09:36:07;;;;;;;2.30;0.90;;;;;;;32.09;9.57;99909.30;1670209;86;21156;-65
2022/05/05 09:39:00;;;;;;;2.27;0.65;;;;;;;32.14;9.58;99912.51;1670139;86;21015;-66
2022/05/05 09:41:28;;;;;;;4.15;0.98;;;;;;;32.09;9.35;99909.84;1670307;86;21070;-68
2022/05/05 09:43:57;;;;;;;2.30;0.90;;;;;;;31.95;9.70;99905.63;1670281;85;20932;-68
2022/05/05 09:46:30;;;;;;;1.90;0.90;;;;;;;32.18;9.75;99903.89;1670303;85;20928;-69
2022/05/05 09:49:07;;;;;;;2.05;0.90;;;;;;;32.50;9.43;99896.98;1670424;86;21425;-68
2022/05/05 09:51:43;;;;;;;5.65;0.80;;;;;;;32.70;9.16;99902.67;1670094;85;21007;-66
2022/05/05 09:59:48;;;;;;;1.17;0.80;;;;;;;33.10;9.25;99896.92;1680134;84;21000;-67
2022/05/05 10:05:10;;;;;;;7.95;1.15;;;;;;;32.74;9.19;99888.00;1651209;85;21466;-66
2022/05/05 10:07:38;;;;;;;2.98;0.90;;;;;;;30.80;10.10;99899.79;1644311;86;21003;-68
2022/05/05 10:10:07;;;;;;;2.08;0.75;;;;;;;28.92;11.14;99895.45;1644142;86;21040;-69
2022/05/05 10:12:36;;;;;;;2.10;0.80;;;;;;;27.83;11.70;99897.52;1644479;86;20964;-68
2022/05/05 10:15:04;;;;;;;2.08;0.93;;;;;;;27.04;12.03;99893.51;1644217;86;21150;-66
2022/05/05 10:17:34;;;;;;;2.33;0.82;;;;;;;26.19;12.89;99895.47;1644184;86;21015;-66
2022/05/05 10:20:03;;;;;;;8.23;1.98;;;;;;;25.07;13.64;99886.45;1644239;86;20928;-66
2022/05/05 10:22:44;;;;;;;2.02;0.60;;;;;;;24.20;14.56;99904.00;1652076;85;21527;-69
2022/05/05 10:25:21;;;;;;;4.37;0.90;;;;;;;23.50;14.80;99900.89;1652029;85;20999;-67
2022/05/05 10:27:48;;;;;;;6.55;1.12;;;;;;;23.03;15.25;99892.61;1652361;85;21529;-69
2022/05/05 10:30:19;;;;;;;2.83;0.90;;;;;;;22.79;15.60;99891.05;1652737;85;20964;-66
2022/05/05 10:32:46;;;;;;;3.25;1.07;;;;;;;22.69;15.55;99892.99;1673906;85;21012;-65
2022/05/05 10:35:22;;;;;;;2.20;0.70;;;;;;;22.56;15.67;99897.28;1678725;85;20921;-65
2022/05/05 10:37:49;;;;;;;4.53;1.07;;;;;;;22.37;15.98;99892.53;1650526;85;21064;-67
2022/05/05 10:40:16;;;;;;;1.20;0.60;;;;;;;22.04;16.37;99897.71;1661526;85;21853;-66
2022/05/05 10:42:45;;;;;;;1.95;0.62;;;;;;;21.71;16.45;99905.00;1652378;85;20912;-65
2022/05/05 10:45:30;;;;;;;2.10;0.80;;;;;;;21.44;16.66;99898.32;1661562;85;20916;-67
2022/05/05 10:48:04;;;;;;;3.20;0.85;;;;;;;21.21;17.03;99895.53;1672803;85;21459;-67
2022/05/05 10:50:50;;;;;;;3.17;1.12;;;;;;;21.21;17.03;99895.53;1678754;85;21111;-68
2022/05/05 10:53:30;;;;;;;0.93;0.82;;;;;;;21.08;17.17;99894.35;1677467;85;21193;-66
2022/05/05 10:56:01;;;;;;;1.82;0.42;;;;;;;20.87;16.96;99882.11;1679015;85;20905;-66
2022/05/05 10:59:03;;;;;;;4.25;0.75;;;;;;;20.81;17.43;99888.41;1678367;85;21590;-64
2022/05/05 11:01:47;;;;;;;3.45;1.02;;;;;;;20.76;17.38;99885.04;1678829;85;20944;-68
2022/05/05 11:04:23;;;;;;;0.98;0.80;;;;;;;20.72;17.53;99889.78;1665011;85;20909;-66
2022/05/05 11:07:27;;;;;;;1.35;0.90;;;;;;;20.63;17.57;99885.71;1678921;85;21792;-66
2022/05/05 11:09:52;;;;;;;4.10;1.05;;;;;;;20.54;17.58;99882.51;1678804;85;21586;-66
2022/05/05 11:12:22;;;;;;;0.75;0.70;;;;;;;20.54;18.27;99890.61;1670225;85;20948;-67
2022/05/05 11:23:46;;;;;;;1.22;0.65;;;;;;;20.35;18.21;99884.89;1686525;85;20908;-66
2022/05/05 11:26:20;;;;;;;3.25;0.82;;;;;;;20.37;18.73;99888.70;1686498;85;20980;-67
2022/05/05 11:28:47;;;;;;;1.85;0.70;;;;;;;20.42;18.55;99880.75;1686605;84;20885;-67
2022/05/05 11:31:31;;;;;;;5.97;1.40;;;;;;;20.49;18.36;99880.17;1678093;85;20948;-64
2022/05/05 11:34:00;;;;;;;4.47;0.90;;;;;;;20.51;18.63;99877.55;1659856;85;21910;-66
2022/05/05 11:36:33;;;;;;;2.58;0.80;;;;;;;20.46;18.20;99889.55;1659688;85;21556;-67
2022/05/05 11:38:59;;;;;;;3.47;0.93;;;;;;;20.34;18.19;99879.17;1659939;85;21030;-67
2022/05/05 11:41:28;;;;;;;1.15;0.90;;;;;;;20.28;18.19;99882.78;1659874;85;21059;-66
2022/05/05 11:46:40;;;;;;;4.42;0.93;;;;;;;20.21;18.39;99874.70;1686460;84;21274;-67
2022/05/05 11:49:08;;;;;;;6.65;1.72;;;;;;;20.10;18.60;99884.88;1686360;85;21039;-67
2022/05/05 11:51:35;;;;;;;3.55;2.65;;;;;;;20.02;18.86;99890.55;1686564;85;21012;-67
2022/05/05 11:54:05;;;;;;;5.08;2.45;;;;;;;19.92;19.19;99887.53;1686312;85;20916;-67
2022/05/05 11:56:33;;;;;;;0.93;0.90;;;;;;;19.89;18.96;99879.89;1686370;85;21459;-66
2022/05/05 12:02:15;;;;;;;1.67;1.00;;;;;;;19.84;18.68;99868.10;1669140;85;20972;-64
2022/05/05 12:04:45;;;;;;;1.60;0.82;;;;;;;19.85;19.05;99865.17;1659795;85;20976;-63
2022/05/05 12:07:20;;;;;;;2.27;0.90;;;;;;;19.81;19.33;99860.44;1659777;85;20969;-67
2022/05/05 12:09:50;;;;;;;;;;;;;;;19.80;19.34;99856.91;1680193;85;21597;-65
2022/05/05 12:12:23;;;;;;;1.10;0.80;;;;;;;19.80;19.09;99852.86;1668228;85;21191;-66
2022/05/05 12:14:57;;;;;;;2.27;0.85;;;;;;;19.79;19.01;99860.64;1678050;85;20960;-66
2022/05/05 12:17:28;;;;;;;0.93;0.70;;;;;;;19.76;18.94;99844.08;1686467;85;21478;-66
2022/05/05 12:19:59;;;;;;;2.72;1.02;;;;;;;19.62;19.06;99841.49;1686236;85;20960;-65
2022/05/05 12:22:33;;;;;;;4.60;1.30;;;;;;;19.59;19.33;99840.58;1678785;84;20968;-67
2022/05/05 12:25:14;;;;;;;6.55;0.85;;;;;;;19.60;19.26;99837.36;1670377;86;21250;-67
2022/05/05 12:28:00;;;;;;;1.00;0.88;;;;;;;19.54;19.27;99831.48;1670177;85;20872;-68